sensor_id;sensor_type;location;lat;lon;timestamp;temperature;humidity
8593;DHT22;4334;49.982;8.398;2022-11-15T00:01:08;7.80;99.90
8593;DHT22;4334;49.982;8.398;2022-11-15T00:03:35;7.80;99.90
8593;DHT22;4334;49.982;8.398;2022-11-15T00:06:03;7.80;99.90
8593;DHT22;4334;49.982;8.398;2022-11-15T00:08:32;7.80;99.90
8593;DHT22;4334;49.982;8.398;2022-11-15T00:11:00;8.80;99.90
8593;DHT22;4334;49.982;8.398;2022-11-15T00:13:29;7.80;99.90
8593;DHT22;4334;49.982;8.398;2022-11-15T00:15:57;7.80;99.90
8593;DHT22;4334;49.982;8.398;2022-11-15T00:18:24;7.90;99.90
8593;DHT22;4334;49.982;8.398;2022-11-15T00:20:51;8.00;99.90
8593;DHT22;4334;49.982;8.398;2022-11-15T00:23:18;8.00;99.90
8593;DHT22;4334;49.982;8.398;2022-11-15T00:25:46;8.00;99.90
8593;DHT22;4334;49.982;8.398;2022-11-15T00:28:13;10.10;99.90
8593;DHT22;4334;49.982;8.398;2022-11-15T00:30:40;8.10;99.90
8593;DHT22;4334;49.982;8.398;2022-11-15T00:33:08;8.10;99.90
8593;DHT22;4334;49.982;8.398;2022-11-15T00:35:36;9.00;99.90
8593;DHT22;4334;49.982;8.398;2022-11-15T00:38:03;8.20;99.90
8593;DHT22;4334;49.982;8.398;2022-11-15T00:40:30;8.20;99.90
8593;DHT22;4334;49.982;8.398;2022-11-15T00:42:58;8.30;99.90
8593;DHT22;4334;49.982;8.398;2022-11-15T00:45:25;9.10;99.90
8593;DHT22;4334;49.982;8.398;2022-11-15T00:47:52;8.30;99.90
8593;DHT22;4334;49.982;8.398;2022-11-15T00:50:19;8.40;99.90
8593;DHT22;4334;49.982;8.398;2022-11-15T00:52:46;8.40;99.90
8593;DHT22;4334;49.982;8.398;2022-11-15T00:55:14;8.50;99.90
8593;DHT22;4334;49.982;8.398;2022-11-15T00:57:42;8.50;99.90
8593;DHT22;4334;49.982;8.398;2022-11-15T01:00:11;8.60;99.90
8593;DHT22;4334;49.982;8.398;2022-11-15T01:02:38;8.60;99.90
8593;DHT22;4334;49.982;8.398;2022-11-15T01:05:06;8.60;99.90
8593;DHT22;4334;49.982;8.398;2022-11-15T01:07:33;8.50;99.90
8593;DHT22;4334;49.982;8.398;2022-11-15T01:10:00;8.50;99.90
8593;DHT22;4334;49.982;8.398;2022-11-15T01:12:27;8.70;99.90
8593;DHT22;4334;49.982;8.398;2022-11-15T01:14:54;8.40;99.90
8593;DHT22;4334;49.982;8.398;2022-11-15T01:17:22;8.40;99.90
8593;DHT22;4334;49.982;8.398;2022-11-15T01:19:49;8.40;99.90
8593;DHT22;4334;49.982;8.398;2022-11-15T01:22:16;8.50;99.90
8593;DHT22;4334;49.982;8.398;2022-11-15T01:24:43;8.50;99.90
8593;DHT22;4334;49.982;8.398;2022-11-15T01:27:10;8.50;99.90
8593;DHT22;4334;49.982;8.398;2022-11-15T01:29:37;8.50;99.90
8593;DHT22;4334;49.982;8.398;2022-11-15T01:32:04;8.30;99.90
8593;DHT22;4334;49.982;8.398;2022-11-15T01:34:32;8.30;99.90
8593;DHT22;4334;49.982;8.398;2022-11-15T01:36:59;10.40;99.90
8593;DHT22;4334;49.982;8.398;2022-11-15T01:39:26;8.30;99.90
8593;DHT22;4334;49.982;8.398;2022-11-15T01:41:52;8.30;99.90
8593;DHT22;4334;49.982;8.398;2022-11-15T01:44:39;8.30;99.90
8593;DHT22;4334;49.982;8.398;2022-11-15T01:47:09;8.40;99.90
8593;DHT22;4334;49.982;8.398;2022-11-15T01:49:54;8.40;99.90
8593;DHT22;4334;49.982;8.398;2022-11-15T01:52:24;8.40;99.90
8593;DHT22;4334;49.982;8.398;2022-11-15T01:54:56;9.70;99.90
8593;DHT22;4334;49.982;8.398;2022-11-15T01:57:25;8.40;99.90
8593;DHT22;4334;49.982;8.398;2022-11-15T01:59:53;8.50;99.90
8593;DHT22;4334;49.982;8.398;2022-11-15T02:02:20;8.50;99.90
8593;DHT22;4334;49.982;8.398;2022-11-15T02:04:48;8.50;99.90
8593;DHT22;4334;49.982;8.398;2022-11-15T02:07:17;8.60;99.90
8593;DHT22;4334;49.982;8.398;2022-11-15T02:09:46;9.10;99.90
8593;DHT22;4334;49.982;8.398;2022-11-15T02:12:16;8.50;99.90
8593;DHT22;4334;49.982;8.398;2022-11-15T02:14:47;8.50;99.90
8593;DHT22;4334;49.982;8.398;2022-11-15T02:17:32;8.50;99.90
8593;DHT22;4334;49.982;8.398;2022-11-15T02:20:38;9.50;99.90
8593;DHT22;4334;49.982;8.398;2022-11-15T02:30:03;8.40;99.90
8593;DHT22;4334;49.982;8.398;2022-11-15T02:32:36;8.40;99.90
8593;DHT22;4334;49.982;8.398;2022-11-15T02:35:15;8.70;99.90
8593;DHT22;4334;49.982;8.398;2022-11-15T02:37:46;8.50;99.90
8593;DHT22;4334;49.982;8.398;2022-11-15T02:40:23;8.50;99.90
8593;DHT22;4334;49.982;8.398;2022-11-15T02:42:55;8.50;99.90
8593;DHT22;4334;49.982;8.398;2022-11-15T02:45:46;8.50;99.90
8593;DHT22;4334;49.982;8.398;2022-11-15T02:48:17;8.50;99.90
8593;DHT22;4334;49.982;8.398;2022-11-15T02:50:45;8.40;99.90
8593;DHT22;4334;49.982;8.398;2022-11-15T02:53:14;8.40;99.90
8593;DHT22;4334;49.982;8.398;2022-11-15T02:55:44;8.40;99.90
8593;DHT22;4334;49.982;8.398;2022-11-15T03:01:29;8.50;99.90
8593;DHT22;4334;49.982;8.398;2022-11-15T03:04:08;11.40;99.90
8593;DHT22;4334;49.982;8.398;2022-11-15T03:06:42;8.30;99.90
8593;DHT22;4334;49.982;8.398;2022-11-15T03:09:16;8.20;99.90
8593;DHT22;4334;49.982;8.398;2022-11-15T03:11:50;8.20;99.90
8593;DHT22;4334;49.982;8.398;2022-11-15T03:14:24;8.10;99.90
8593;DHT22;4334;49.982;8.398;2022-11-15T03:16:59;8.10;99.90
8593;DHT22;4334;49.982;8.398;2022-11-15T03:19:35;8.10;99.90
8593;DHT22;4334;49.982;8.398;2022-11-15T03:22:09;8.20;99.90
8593;DHT22;4334;49.982;8.398;2022-11-15T03:24:38;8.20;99.90
8593;DHT22;4334;49.982;8.398;2022-11-15T03:27:07;8.30;99.90
8593;DHT22;4334;49.982;8.398;2022-11-15T03:29:38;10.70;99.90
8593;DHT22;4334;49.982;8.398;2022-11-15T03:32:09;8.40;99.90
8593;DHT22;4334;49.982;8.398;2022-11-15T03:34:42;8.50;99.90
8593;DHT22;4334;49.982;8.398;2022-11-15T03:37:13;8.70;99.90
8593;DHT22;4334;49.982;8.398;2022-11-15T03:39:41;8.80;99.90
8593;DHT22;4334;49.982;8.398;2022-11-15T03:42:16;8.90;99.90
8593;DHT22;4334;49.982;8.398;2022-11-15T03:44:47;9.00;99.90
8593;DHT22;4334;49.982;8.398;2022-11-15T03:47:20;9.10;99.90
8593;DHT22;4334;49.982;8.398;2022-11-15T03:49:53;9.20;99.90
8593;DHT22;4334;49.982;8.398;2022-11-15T03:52:22;9.30;99.90
8593;DHT22;4334;49.982;8.398;2022-11-15T03:54:50;9.40;99.90
8593;DHT22;4334;49.982;8.398;2022-11-15T03:57:17;9.50;99.90
8593;DHT22;4334;49.982;8.398;2022-11-15T03:59:44;9.50;99.90
8593;DHT22;4334;49.982;8.398;2022-11-15T04:02:11;10.00;99.90
8593;DHT22;4334;49.982;8.398;2022-11-15T04:04:38;9.60;99.90
8593;DHT22;4334;49.982;8.398;2022-11-15T04:07:08;9.60;99.90
8593;DHT22;4334;49.982;8.398;2022-11-15T04:09:35;9.60;99.90
8593;DHT22;4334;49.982;8.398;2022-11-15T04:12:23;9.60;99.90
8593;DHT22;4334;49.982;8.398;2022-11-15T04:14:58;9.60;99.90
8593;DHT22;4334;49.982;8.398;2022-11-15T04:17:35;9.70;99.90
8593;DHT22;4334;49.982;8.398;2022-11-15T04:20:03;9.60;99.90
8593;DHT22;4334;49.982;8.398;2022-11-15T04:22:52;9.60;99.90
8593;DHT22;4334;49.982;8.398;2022-11-15T04:25:37;9.60;99.90
8593;DHT22;4334;49.982;8.398;2022-11-15T04:28:04;9.60;99.90
8593;DHT22;4334;49.982;8.398;2022-11-15T04:30:31;9.60;99.90
8593;DHT22;4334;49.982;8.398;2022-11-15T04:32:58;9.60;99.90
8593;DHT22;4334;49.982;8.398;2022-11-15T04:35:25;9.70;99.90
8593;DHT22;4334;49.982;8.398;2022-11-15T04:37:53;9.70;99.90
8593;DHT22;4334;49.982;8.398;2022-11-15T04:40:20;9.70;99.90
8593;DHT22;4334;49.982;8.398;2022-11-15T04:42:47;9.70;99.90
8593;DHT22;4334;49.982;8.398;2022-11-15T04:45:14;9.70;99.90
8593;DHT22;4334;49.982;8.398;2022-11-15T04:47:43;9.60;99.90
8593;DHT22;4334;49.982;8.398;2022-11-15T04:50:11;9.70;99.90
8593;DHT22;4334;49.982;8.398;2022-11-15T04:52:40;9.60;99.90
8593;DHT22;4334;49.982;8.398;2022-11-15T04:55:09;9.70;99.90
8593;DHT22;4334;49.982;8.398;2022-11-15T04:57:36;9.70;99.90
8593;DHT22;4334;49.982;8.398;2022-11-15T05:00:06;9.80;99.90
8593;DHT22;4334;49.982;8.398;2022-11-15T05:02:33;9.90;99.90
8593;DHT22;4334;49.982;8.398;2022-11-15T05:05:14;10.00;99.90
8593;DHT22;4334;49.982;8.398;2022-11-15T05:07:41;10.00;99.90
8593;DHT22;4334;49.982;8.398;2022-11-15T05:10:09;10.00;99.90
8593;DHT22;4334;49.982;8.398;2022-11-15T05:12:36;10.10;99.90
8593;DHT22;4334;49.982;8.398;2022-11-15T05:15:04;10.10;99.90
8593;DHT22;4334;49.982;8.398;2022-11-15T05:17:31;10.10;99.90
8593;DHT22;4334;49.982;8.398;2022-11-15T05:19:58;10.20;99.90
8593;DHT22;4334;49.982;8.398;2022-11-15T05:22:24;11.60;99.90
8593;DHT22;4334;49.982;8.398;2022-11-15T05:24:51;10.20;99.90
8593;DHT22;4334;49.982;8.398;2022-11-15T05:27:19;10.30;99.90
8593;DHT22;4334;49.982;8.398;2022-11-15T05:29:46;10.30;99.90
8593;DHT22;4334;49.982;8.398;2022-11-15T05:32:13;10.20;99.90
8593;DHT22;4334;49.982;8.398;2022-11-15T05:34:40;10.20;99.90
8593;DHT22;4334;49.982;8.398;2022-11-15T05:37:07;10.20;99.90
8593;DHT22;4334;49.982;8.398;2022-11-15T05:39:34;10.30;99.90
8593;DHT22;4334;49.982;8.398;2022-11-15T05:42:05;10.20;99.90
8593;DHT22;4334;49.982;8.398;2022-11-15T05:44:35;10.20;99.90
8593;DHT22;4334;49.982;8.398;2022-11-15T05:47:03;10.20;99.90
8593;DHT22;4334;49.982;8.398;2022-11-15T05:49:34;10.20;99.90
8593;DHT22;4334;49.982;8.398;2022-11-15T05:52:03;10.20;99.90
8593;DHT22;4334;49.982;8.398;2022-11-15T05:54:32;10.10;99.90
8593;DHT22;4334;49.982;8.398;2022-11-15T05:57:00;10.20;99.90
8593;DHT22;4334;49.982;8.398;2022-11-15T05:59:28;10.10;99.90
8593;DHT22;4334;49.982;8.398;2022-11-15T06:01:57;10.20;99.90
8593;DHT22;4334;49.982;8.398;2022-11-15T06:04:24;10.20;99.90
8593;DHT22;4334;49.982;8.398;2022-11-15T06:06:51;10.20;99.90
8593;DHT22;4334;49.982;8.398;2022-11-15T06:09:17;10.20;99.90
8593;DHT22;4334;49.982;8.398;2022-11-15T06:11:44;10.20;99.90
8593;DHT22;4334;49.982;8.398;2022-11-15T06:14:11;10.10;99.90
8593;DHT22;4334;49.982;8.398;2022-11-15T06:16:38;10.10;99.90
8593;DHT22;4334;49.982;8.398;2022-11-15T06:19:07;10.10;99.90
8593;DHT22;4334;49.982;8.398;2022-11-15T06:21:34;10.00;99.90
8593;DHT22;4334;49.982;8.398;2022-11-15T06:24:01;10.00;99.90
8593;DHT22;4334;49.982;8.398;2022-11-15T06:26:28;13.80;99.90
8593;DHT22;4334;49.982;8.398;2022-11-15T06:28:54;10.00;99.90
8593;DHT22;4334;49.982;8.398;2022-11-15T06:31:21;12.80;99.90
8593;DHT22;4334;49.982;8.398;2022-11-15T06:33:48;9.90;99.90
8593;DHT22;4334;49.982;8.398;2022-11-15T06:36:16;9.90;99.90
8593;DHT22;4334;49.982;8.398;2022-11-15T06:38:44;9.90;99.90
8593;DHT22;4334;49.982;8.398;2022-11-15T06:41:12;10.00;99.90
8593;DHT22;4334;49.982;8.398;2022-11-15T06:43:40;10.00;99.90
8593;DHT22;4334;49.982;8.398;2022-11-15T06:46:08;10.00;99.90
8593;DHT22;4334;49.982;8.398;2022-11-15T06:48:35;10.10;99.90
8593;DHT22;4334;49.982;8.398;2022-11-15T06:51:03;10.10;99.90
8593;DHT22;4334;49.982;8.398;2022-11-15T06:53:32;10.10;99.90
8593;DHT22;4334;49.982;8.398;2022-11-15T06:56:00;13.00;99.90
8593;DHT22;4334;49.982;8.398;2022-11-15T06:58:27;10.20;99.90
8593;DHT22;4334;49.982;8.398;2022-11-15T07:00:58;11.50;99.90
8593;DHT22;4334;49.982;8.398;2022-11-15T07:03:25;10.30;99.90
8593;DHT22;4334;49.982;8.398;2022-11-15T07:05:53;10.30;99.90
8593;DHT22;4334;49.982;8.398;2022-11-15T07:08:21;10.30;99.90
8593;DHT22;4334;49.982;8.398;2022-11-15T07:10:50;13.70;99.90
8593;DHT22;4334;49.982;8.398;2022-11-15T07:13:16;10.40;99.90
8593;DHT22;4334;49.982;8.398;2022-11-15T07:15:43;10.50;99.90
8593;DHT22;4334;49.982;8.398;2022-11-15T07:18:10;10.50;99.90
8593;DHT22;4334;49.982;8.398;2022-11-15T07:20:37;10.60;99.90
8593;DHT22;4334;49.982;8.398;2022-11-15T07:23:05;10.70;99.90
8593;DHT22;4334;49.982;8.398;2022-11-15T07:25:32;10.70;99.90
8593;DHT22;4334;49.982;8.398;2022-11-15T07:28:01;10.70;99.90
8593;DHT22;4334;49.982;8.398;2022-11-15T07:30:29;10.70;99.90
8593;DHT22;4334;49.982;8.398;2022-11-15T07:32:56;10.70;99.90
8593;DHT22;4334;49.982;8.398;2022-11-15T07:35:24;10.80;99.90
8593;DHT22;4334;49.982;8.398;2022-11-15T07:37:55;10.60;99.90
8593;DHT22;4334;49.982;8.398;2022-11-15T07:40:23;10.70;99.90
8593;DHT22;4334;49.982;8.398;2022-11-15T07:42:50;10.80;99.90
8593;DHT22;4334;49.982;8.398;2022-11-15T07:45:21;13.30;99.90
8593;DHT22;4334;49.982;8.398;2022-11-15T07:47:49;10.80;99.90
8593;DHT22;4334;49.982;8.398;2022-11-15T07:50:17;10.80;99.90
8593;DHT22;4334;49.982;8.398;2022-11-15T07:52:44;11.00;99.90
8593;DHT22;4334;49.982;8.398;2022-11-15T07:55:11;11.10;99.90
8593;DHT22;4334;49.982;8.398;2022-11-15T07:57:38;11.10;99.90
8593;DHT22;4334;49.982;8.398;2022-11-15T08:00:06;11.20;99.90
8593;DHT22;4334;49.982;8.398;2022-11-15T08:02:34;11.20;99.90
8593;DHT22;4334;49.982;8.398;2022-11-15T08:05:01;11.10;99.90
8593;DHT22;4334;49.982;8.398;2022-11-15T08:07:29;11.00;99.90
8593;DHT22;4334;49.982;8.398;2022-11-15T08:09:56;12.30;99.90
8593;DHT22;4334;49.982;8.398;2022-11-15T08:12:23;11.20;99.90
8593;DHT22;4334;49.982;8.398;2022-11-15T08:14:51;11.20;99.90
8593;DHT22;4334;49.982;8.398;2022-11-15T08:17:18;11.30;99.90
8593;DHT22;4334;49.982;8.398;2022-11-15T08:19:46;13.50;99.90
8593;DHT22;4334;49.982;8.398;2022-11-15T08:22:13;11.40;99.90
8593;DHT22;4334;49.982;8.398;2022-11-15T08:24:40;11.40;99.90
8593;DHT22;4334;49.982;8.398;2022-11-15T08:27:07;11.40;99.90
8593;DHT22;4334;49.982;8.398;2022-11-15T08:29:41;11.40;99.90
8593;DHT22;4334;49.982;8.398;2022-11-15T08:32:08;11.40;99.90
8593;DHT22;4334;49.982;8.398;2022-11-15T08:34:35;11.40;99.90
8593;DHT22;4334;49.982;8.398;2022-11-15T08:37:03;11.40;99.90
8593;DHT22;4334;49.982;8.398;2022-11-15T08:39:31;11.40;99.90
8593;DHT22;4334;49.982;8.398;2022-11-15T08:41:58;11.40;99.90
8593;DHT22;4334;49.982;8.398;2022-11-15T08:44:24;11.20;99.90
8593;DHT22;4334;49.982;8.398;2022-11-15T08:46:52;11.30;99.90
8593;DHT22;4334;49.982;8.398;2022-11-15T08:49:18;14.40;99.90
8593;DHT22;4334;49.982;8.398;2022-11-15T08:51:45;11.50;99.90
8593;DHT22;4334;49.982;8.398;2022-11-15T08:54:14;11.60;99.90
8593;DHT22;4334;49.982;8.398;2022-11-15T08:56:40;11.70;99.90
8593;DHT22;4334;49.982;8.398;2022-11-15T08:59:07;11.80;99.90
8593;DHT22;4334;49.982;8.398;2022-11-15T09:01:34;11.80;99.90
8593;DHT22;4334;49.982;8.398;2022-11-15T09:04:01;11.80;99.90
8593;DHT22;4334;49.982;8.398;2022-11-15T09:06:29;11.90;99.90
8593;DHT22;4334;49.982;8.398;2022-11-15T09:08:56;11.90;99.90
8593;DHT22;4334;49.982;8.398;2022-11-15T09:11:24;11.80;99.90
8593;DHT22;4334;49.982;8.398;2022-11-15T09:13:52;15.50;99.90
8593;DHT22;4334;49.982;8.398;2022-11-15T09:16:19;15.50;99.90
8593;DHT22;4334;49.982;8.398;2022-11-15T09:18:46;11.80;99.90
8593;DHT22;4334;49.982;8.398;2022-11-15T09:21:13;12.00;99.90
8593;DHT22;4334;49.982;8.398;2022-11-15T09:23:40;12.00;99.90
8593;DHT22;4334;49.982;8.398;2022-11-15T09:26:07;12.10;99.90
8593;DHT22;4334;49.982;8.398;2022-11-15T09:28:36;12.10;99.90
8593;DHT22;4334;49.982;8.398;2022-11-15T09:31:05;12.10;99.90
8593;DHT22;4334;49.982;8.398;2022-11-15T09:33:32;12.10;99.90
8593;DHT22;4334;49.982;8.398;2022-11-15T09:36:01;12.10;99.90
8593;DHT22;4334;49.982;8.398;2022-11-15T09:38:28;12.10;99.90
8593;DHT22;4334;49.982;8.398;2022-11-15T09:41:14;14.20;99.90
8593;DHT22;4334;49.982;8.398;2022-11-15T09:43:49;11.80;99.90
8593;DHT22;4334;49.982;8.398;2022-11-15T09:46:24;11.80;99.90
8593;DHT22;4334;49.982;8.398;2022-11-15T09:48:53;11.70;99.90
8593;DHT22;4334;49.982;8.398;2022-11-15T09:51:29;11.70;99.90
8593;DHT22;4334;49.982;8.398;2022-11-15T09:54:01;11.70;99.90
8593;DHT22;4334;49.982;8.398;2022-11-15T09:56:31;11.70;99.90
8593;DHT22;4334;49.982;8.398;2022-11-15T09:59:13;11.70;99.90
8593;DHT22;4334;49.982;8.398;2022-11-15T10:01:47;11.70;99.90
8593;DHT22;4334;49.982;8.398;2022-11-15T10:04:17;11.80;99.90
8593;DHT22;4334;49.982;8.398;2022-11-15T10:06:49;11.80;99.90
8593;DHT22;4334;49.982;8.398;2022-11-15T10:09:23;11.80;99.90
8593;DHT22;4334;49.982;8.398;2022-11-15T10:11:51;11.70;99.90
8593;DHT22;4334;49.982;8.398;2022-11-15T10:14:21;11.80;99.90
8593;DHT22;4334;49.982;8.398;2022-11-15T10:19:52;11.80;99.90
8593;DHT22;4334;49.982;8.398;2022-11-15T10:22:28;11.80;99.90
8593;DHT22;4334;49.982;8.398;2022-11-15T10:25:18;11.70;99.90
8593;DHT22;4334;49.982;8.398;2022-11-15T10:27:51;13.50;99.90
8593;DHT22;4334;49.982;8.398;2022-11-15T10:30:20;11.70;99.90
8593;DHT22;4334;49.982;8.398;2022-11-15T10:32:48;11.80;99.90
8593;DHT22;4334;49.982;8.398;2022-11-15T10:35:22;11.70;99.90
8593;DHT22;4334;49.982;8.398;2022-11-15T10:37:49;11.80;99.90
8593;DHT22;4334;49.982;8.398;2022-11-15T10:40:19;11.70;99.90
8593;DHT22;4334;49.982;8.398;2022-11-15T10:42:46;11.70;99.90
8593;DHT22;4334;49.982;8.398;2022-11-15T10:45:26;11.70;99.90
8593;DHT22;4334;49.982;8.398;2022-11-15T10:47:53;11.70;99.90
8593;DHT22;4334;49.982;8.398;2022-11-15T10:50:32;11.80;99.90
8593;DHT22;4334;49.982;8.398;2022-11-15T10:53:00;11.80;99.90
8593;DHT22;4334;49.982;8.398;2022-11-15T10:55:29;11.70;99.90
8593;DHT22;4334;49.982;8.398;2022-11-15T10:58:02;11.80;99.90
8593;DHT22;4334;49.982;8.398;2022-11-15T11:00:34;11.80;99.90
8593;DHT22;4334;49.982;8.398;2022-11-15T11:03:03;11.90;99.90
8593;DHT22;4334;49.982;8.398;2022-11-15T11:05:33;12.10;99.90
8593;DHT22;4334;49.982;8.398;2022-11-15T11:08:02;12.40;99.90
8593;DHT22;4334;49.982;8.398;2022-11-15T11:10:30;12.50;99.90
8593;DHT22;4334;49.982;8.398;2022-11-15T11:13:12;12.50;99.90
8593;DHT22;4334;49.982;8.398;2022-11-15T11:15:44;12.40;99.90
8593;DHT22;4334;49.982;8.398;2022-11-15T11:18:19;12.70;99.90
8593;DHT22;4334;49.982;8.398;2022-11-15T11:20:54;12.80;99.90
8593;DHT22;4334;49.982;8.398;2022-11-15T11:23:36;16.30;99.90
8593;DHT22;4334;49.982;8.398;2022-11-15T11:26:17;13.80;99.90
8593;DHT22;4334;49.982;8.398;2022-11-15T11:28:51;14.20;99.90
8593;DHT22;4334;49.982;8.398;2022-11-15T11:31:28;14.20;99.90
8593;DHT22;4334;49.982;8.398;2022-11-15T11:34:02;14.00;99.90
8593;DHT22;4334;49.982;8.398;2022-11-15T11:36:37;16.60;99.90
8593;DHT22;4334;49.982;8.398;2022-11-15T11:39:19;13.30;99.90
8593;DHT22;4334;49.982;8.398;2022-11-15T11:41:56;13.20;99.90
8593;DHT22;4334;49.982;8.398;2022-11-15T11:44:33;13.30;99.90
8593;DHT22;4334;49.982;8.398;2022-11-15T11:47:08;13.20;99.90
8593;DHT22;4334;49.982;8.398;2022-11-15T11:49:41;13.40;99.90
8593;DHT22;4334;49.982;8.398;2022-11-15T11:52:12;13.40;99.90
8593;DHT22;4334;49.982;8.398;2022-11-15T11:54:47;13.60;99.90
8593;DHT22;4334;49.982;8.398;2022-11-15T11:57:25;13.90;99.90
8593;DHT22;4334;49.982;8.398;2022-11-15T12:00:01;13.90;99.90
8593;DHT22;4334;49.982;8.398;2022-11-15T12:02:33;13.90;99.90
8593;DHT22;4334;49.982;8.398;2022-11-15T12:05:10;13.70;99.90
8593;DHT22;4334;49.982;8.398;2022-11-15T12:07:39;13.60;99.90
8593;DHT22;4334;49.982;8.398;2022-11-15T12:10:17;13.60;99.90
8593;DHT22;4334;49.982;8.398;2022-11-15T12:12:51;14.80;99.90
8593;DHT22;4334;49.982;8.398;2022-11-15T12:15:23;13.70;99.90
8593;DHT22;4334;49.982;8.398;2022-11-15T12:17:55;13.80;99.90
8593;DHT22;4334;49.982;8.398;2022-11-15T12:20:23;13.80;99.90
8593;DHT22;4334;49.982;8.398;2022-11-15T12:22:54;14.10;99.90
8593;DHT22;4334;49.982;8.398;2022-11-15T12:25:26;14.60;99.90
8593;DHT22;4334;49.982;8.398;2022-11-15T12:27:57;14.80;99.90
8593;DHT22;4334;49.982;8.398;2022-11-15T12:30:30;14.40;99.90
8593;DHT22;4334;49.982;8.398;2022-11-15T12:33:05;14.20;99.90
8593;DHT22;4334;49.982;8.398;2022-11-15T12:35:36;14.00;99.90
8593;DHT22;4334;49.982;8.398;2022-11-15T12:38:04;13.80;99.90
8593;DHT22;4334;49.982;8.398;2022-11-15T12:40:34;13.70;99.90
8593;DHT22;4334;49.982;8.398;2022-11-15T12:46:03;13.60;99.90
8593;DHT22;4334;49.982;8.398;2022-11-15T12:48:54;17.10;99.90
8593;DHT22;4334;49.982;8.398;2022-11-15T12:54:49;13.60;99.90
8593;DHT22;4334;49.982;8.398;2022-11-15T12:57:37;13.70;99.90
8593;DHT22;4334;49.982;8.398;2022-11-15T13:03:23;13.70;99.90
8593;DHT22;4334;49.982;8.398;2022-11-15T13:05:58;13.80;99.90
8593;DHT22;4334;49.982;8.398;2022-11-15T13:08:39;13.90;99.90
8593;DHT22;4334;49.982;8.398;2022-11-15T13:14:37;14.00;99.90
8593;DHT22;4334;49.982;8.398;2022-11-15T13:17:26;14.00;99.90
8593;DHT22;4334;49.982;8.398;2022-11-15T13:19:58;14.00;99.90
8593;DHT22;4334;49.982;8.398;2022-11-15T13:22:38;13.90;99.90
8593;DHT22;4334;49.982;8.398;2022-11-15T13:25:26;13.90;99.90
8593;DHT22;4334;49.982;8.398;2022-11-15T13:28:50;14.00;99.90
8593;DHT22;4334;49.982;8.398;2022-11-15T13:31:27;14.00;99.90
8593;DHT22;4334;49.982;8.398;2022-11-15T13:33:58;13.90;99.90
8593;DHT22;4334;49.982;8.398;2022-11-15T13:36:29;13.80;99.90
8593;DHT22;4334;49.982;8.398;2022-11-15T13:39:00;13.80;99.90
8593;DHT22;4334;49.982;8.398;2022-11-15T13:41:29;13.90;99.90
8593;DHT22;4334;49.982;8.398;2022-11-15T13:43:57;13.90;99.90
8593;DHT22;4334;49.982;8.398;2022-11-15T13:46:26;13.80;99.90
8593;DHT22;4334;49.982;8.398;2022-11-15T13:48:56;13.90;99.90
8593;DHT22;4334;49.982;8.398;2022-11-15T13:51:31;13.90;99.90
8593;DHT22;4334;49.982;8.398;2022-11-15T13:54:08;13.80;99.90
8593;DHT22;4334;49.982;8.398;2022-11-15T13:56:37;13.80;99.90
8593;DHT22;4334;49.982;8.398;2022-11-15T13:59:10;13.80;99.90
8593;DHT22;4334;49.982;8.398;2022-11-15T14:01:37;13.60;99.90
8593;DHT22;4334;49.982;8.398;2022-11-15T14:04:12;13.60;99.90
8593;DHT22;4334;49.982;8.398;2022-11-15T14:06:45;13.60;99.90
8593;DHT22;4334;49.982;8.398;2022-11-15T14:09:31;13.60;99.90
8593;DHT22;4334;49.982;8.398;2022-11-15T14:12:00;13.60;99.90
8593;DHT22;4334;49.982;8.398;2022-11-15T14:14:28;13.50;99.90
8593;DHT22;4334;49.982;8.398;2022-11-15T14:16:56;13.60;99.90
8593;DHT22;4334;49.982;8.398;2022-11-15T14:19:39;13.60;99.90
8593;DHT22;4334;49.982;8.398;2022-11-15T14:22:14;13.50;99.90
8593;DHT22;4334;49.982;8.398;2022-11-15T14:24:47;13.50;99.90
8593;DHT22;4334;49.982;8.398;2022-11-15T14:27:22;13.60;99.90
8593;DHT22;4334;49.982;8.398;2022-11-15T14:29:50;13.50;99.90
8593;DHT22;4334;49.982;8.398;2022-11-15T14:32:19;13.50;99.90
8593;DHT22;4334;49.982;8.398;2022-11-15T14:34:47;13.50;99.90
8593;DHT22;4334;49.982;8.398;2022-11-15T14:37:21;13.50;99.90
8593;DHT22;4334;49.982;8.398;2022-11-15T14:39:50;13.40;99.90
8593;DHT22;4334;49.982;8.398;2022-11-15T14:42:22;13.40;99.90
8593;DHT22;4334;49.982;8.398;2022-11-15T14:44:49;13.30;99.90
8593;DHT22;4334;49.982;8.398;2022-11-15T14:47:18;13.30;99.90
8593;DHT22;4334;49.982;8.398;2022-11-15T14:49:45;13.20;99.90
8593;DHT22;4334;49.982;8.398;2022-11-15T14:52:26;13.20;99.90
8593;DHT22;4334;49.982;8.398;2022-11-15T14:54:55;13.20;99.90
8593;DHT22;4334;49.982;8.398;2022-11-15T14:57:24;13.20;99.90
8593;DHT22;4334;49.982;8.398;2022-11-15T14:59:51;13.20;99.90
8593;DHT22;4334;49.982;8.398;2022-11-15T15:02:19;13.20;99.90
8593;DHT22;4334;49.982;8.398;2022-11-15T15:04:48;13.20;99.90
8593;DHT22;4334;49.982;8.398;2022-11-15T15:07:16;13.20;99.90
8593;DHT22;4334;49.982;8.398;2022-11-15T15:09:44;13.20;99.90
8593;DHT22;4334;49.982;8.398;2022-11-15T15:12:16;13.20;99.90
8593;DHT22;4334;49.982;8.398;2022-11-15T15:14:44;13.20;99.90
8593;DHT22;4334;49.982;8.398;2022-11-15T15:17:15;13.20;99.90
8593;DHT22;4334;49.982;8.398;2022-11-15T15:19:42;14.10;99.90
8593;DHT22;4334;49.982;8.398;2022-11-15T15:22:13;13.10;99.90
8593;DHT22;4334;49.982;8.398;2022-11-15T15:24:41;13.00;99.90
8593;DHT22;4334;49.982;8.398;2022-11-15T15:27:08;13.00;99.90
8593;DHT22;4334;49.982;8.398;2022-11-15T15:29:36;12.90;99.90
8593;DHT22;4334;49.982;8.398;2022-11-15T15:32:04;12.90;99.90
8593;DHT22;4334;49.982;8.398;2022-11-15T15:34:32;12.90;99.90
8593;DHT22;4334;49.982;8.398;2022-11-15T15:37:26;12.90;99.90
8593;DHT22;4334;49.982;8.398;2022-11-15T15:39:54;12.90;99.90
8593;DHT22;4334;49.982;8.398;2022-11-15T15:42:22;13.00;99.90
8593;DHT22;4334;49.982;8.398;2022-11-15T15:44:51;12.90;99.90
8593;DHT22;4334;49.982;8.398;2022-11-15T15:47:20;12.80;99.90
8593;DHT22;4334;49.982;8.398;2022-11-15T15:49:48;12.80;99.90
8593;DHT22;4334;49.982;8.398;2022-11-15T15:52:15;12.70;99.90
8593;DHT22;4334;49.982;8.398;2022-11-15T15:54:42;12.60;99.90
8593;DHT22;4334;49.982;8.398;2022-11-15T15:57:12;12.60;99.90
8593;DHT22;4334;49.982;8.398;2022-11-15T15:59:39;12.60;99.90
8593;DHT22;4334;49.982;8.398;2022-11-15T16:02:09;12.60;99.90
8593;DHT22;4334;49.982;8.398;2022-11-15T16:04:37;12.50;99.90
8593;DHT22;4334;49.982;8.398;2022-11-15T16:07:15;12.50;99.90
8593;DHT22;4334;49.982;8.398;2022-11-15T16:09:43;12.50;99.90
8593;DHT22;4334;49.982;8.398;2022-11-15T16:12:30;12.40;99.90
8593;DHT22;4334;49.982;8.398;2022-11-15T16:14:57;12.40;99.90
8593;DHT22;4334;49.982;8.398;2022-11-15T16:17:31;12.50;99.90
8593;DHT22;4334;49.982;8.398;2022-11-15T16:19:59;12.40;99.90
8593;DHT22;4334;49.982;8.398;2022-11-15T16:22:25;12.40;99.90
8593;DHT22;4334;49.982;8.398;2022-11-15T16:24:54;12.30;99.90
8593;DHT22;4334;49.982;8.398;2022-11-15T16:27:22;12.30;99.90
8593;DHT22;4334;49.982;8.398;2022-11-15T16:29:52;12.20;99.90
8593;DHT22;4334;49.982;8.398;2022-11-15T16:32:19;12.10;99.90
8593;DHT22;4334;49.982;8.398;2022-11-15T16:34:47;12.10;99.90
8593;DHT22;4334;49.982;8.398;2022-11-15T16:37:22;12.00;99.90
8593;DHT22;4334;49.982;8.398;2022-11-15T16:39:49;11.90;99.90
8593;DHT22;4334;49.982;8.398;2022-11-15T16:42:17;12.00;99.90
8593;DHT22;4334;49.982;8.398;2022-11-15T16:44:47;11.90;99.90
8593;DHT22;4334;49.982;8.398;2022-11-15T16:47:17;11.90;99.90
8593;DHT22;4334;49.982;8.398;2022-11-15T16:49:47;11.90;99.90
8593;DHT22;4334;49.982;8.398;2022-11-15T16:52:14;11.90;99.90
8593;DHT22;4334;49.982;8.398;2022-11-15T16:54:42;11.90;99.90